sensor_id;sensor_type;location;lat;lon;timestamp;pressure;altitude;pressure_sealevel;temperature
23208;BMP180;11773;52.570;13.052;2022-08-19T00:00:31;100788.00;;;29.10
23208;BMP180;11773;52.570;13.052;2022-08-19T00:03:00;100777.00;;;29.10
23208;BMP180;11773;52.570;13.052;2022-08-19T00:05:30;100775.00;;;29.10
23208;BMP180;11773;52.570;13.052;2022-08-19T00:08:00;100770.00;;;29.10
23208;BMP180;11773;52.570;13.052;2022-08-19T00:10:30;100781.00;;;29.00
23208;BMP180;11773;52.570;13.052;2022-08-19T00:12:59;100766.00;;;29.00
23208;BMP180;11773;52.570;13.052;2022-08-19T00:15:29;100760.00;;;29.00
23208;BMP180;11773;52.570;13.052;2022-08-19T00:17:58;100757.00;;;29.00
23208;BMP180;11773;52.570;13.052;2022-08-19T00:20:28;100765.00;;;29.00
23208;BMP180;11773;52.570;13.052;2022-08-19T00:22:58;100757.00;;;29.00
23208;BMP180;11773;52.570;13.052;2022-08-19T00:25:27;100780.00;;;29.00
23208;BMP180;11773;52.570;13.052;2022-08-19T00:27:59;100777.00;;;28.90
23208;BMP180;11773;52.570;13.052;2022-08-19T00:30:28;100778.00;;;28.90
23208;BMP180;11773;52.570;13.052;2022-08-19T00:32:59;100775.00;;;28.90
23208;BMP180;11773;52.570;13.052;2022-08-19T00:35:28;100775.00;;;28.90
23208;BMP180;11773;52.570;13.052;2022-08-19T00:37:58;100760.00;;;28.90
23208;BMP180;11773;52.570;13.052;2022-08-19T00:40:28;100757.00;;;28.90
23208;BMP180;11773;52.570;13.052;2022-08-19T00:42:59;100756.00;;;28.90
23208;BMP180;11773;52.570;13.052;2022-08-19T00:45:29;100769.00;;;28.90
23208;BMP180;11773;52.570;13.052;2022-08-19T00:48:02;100757.00;;;28.80
23208;BMP180;11773;52.570;13.052;2022-08-19T00:50:37;100757.00;;;28.80
23208;BMP180;11773;52.570;13.052;2022-08-19T00:53:17;100772.00;;;28.80
23208;BMP180;11773;52.570;13.052;2022-08-19T00:55:51;100765.00;;;28.80
23208;BMP180;11773;52.570;13.052;2022-08-19T00:58:27;100771.00;;;28.80
23208;BMP180;11773;52.570;13.052;2022-08-19T01:00:56;100773.00;;;28.80
23208;BMP180;11773;52.570;13.052;2022-08-19T01:03:25;100758.00;;;28.80
23208;BMP180;11773;52.570;13.052;2022-08-19T01:05:56;100749.00;;;28.80
23208;BMP180;11773;52.570;13.052;2022-08-19T01:08:26;100757.00;;;28.70
23208;BMP180;11773;52.570;13.052;2022-08-19T01:10:58;100734.00;;;28.70
23208;BMP180;11773;52.570;13.052;2022-08-19T01:13:32;100742.00;;;28.70
23208;BMP180;11773;52.570;13.052;2022-08-19T01:16:08;100746.00;;;28.70
23208;BMP180;11773;52.570;13.052;2022-08-19T01:18:42;100742.00;;;28.70
23208;BMP180;11773;52.570;13.052;2022-08-19T01:21:28;100728.00;;;28.70
23208;BMP180;11773;52.570;13.052;2022-08-19T01:23:58;100744.00;;;28.60
23208;BMP180;11773;52.570;13.052;2022-08-19T01:26:28;100734.00;;;28.60
23208;BMP180;11773;52.570;13.052;2022-08-19T01:28:59;100753.00;;;28.60
23208;BMP180;11773;52.570;13.052;2022-08-19T01:31:31;100755.00;;;28.60
23208;BMP180;11773;52.570;13.052;2022-08-19T01:34:02;100766.00;;;28.50
23208;BMP180;11773;52.570;13.052;2022-08-19T01:36:37;100764.00;;;28.50
23208;BMP180;11773;52.570;13.052;2022-08-19T01:39:13;100778.00;;;28.50
23208;BMP180;11773;52.570;13.052;2022-08-19T01:41:41;100777.00;;;28.50
23208;BMP180;11773;52.570;13.052;2022-08-19T01:44:11;100793.00;;;28.50
23208;BMP180;11773;52.570;13.052;2022-08-19T01:46:45;100794.00;;;28.40
23208;BMP180;11773;52.570;13.052;2022-08-19T01:49:19;100790.00;;;28.40
23208;BMP180;11773;52.570;13.052;2022-08-19T01:51:50;100798.00;;;28.40
23208;BMP180;11773;52.570;13.052;2022-08-19T01:54:23;100802.00;;;28.40
23208;BMP180;11773;52.570;13.052;2022-08-19T01:57:03;100796.00;;;28.40
23208;BMP180;11773;52.570;13.052;2022-08-19T02:02:19;100809.00;;;28.30
23208;BMP180;11773;52.570;13.052;2022-08-19T02:04:49;100802.00;;;28.30
23208;BMP180;11773;52.570;13.052;2022-08-19T02:07:21;100801.00;;;28.30
23208;BMP180;11773;52.570;13.052;2022-08-19T02:09:50;100804.00;;;28.30
23208;BMP180;11773;52.570;13.052;2022-08-19T02:12:20;100814.00;;;28.30
23208;BMP180;11773;52.570;13.052;2022-08-19T02:14:49;100812.00;;;28.20
23208;BMP180;11773;52.570;13.052;2022-08-19T02:17:19;100814.00;;;28.20
23208;BMP180;11773;52.570;13.052;2022-08-19T02:19:48;100816.00;;;28.20
23208;BMP180;11773;52.570;13.052;2022-08-19T02:22:18;100806.00;;;28.20
23208;BMP180;11773;52.570;13.052;2022-08-19T02:24:48;100808.00;;;28.20
23208;BMP180;11773;52.570;13.052;2022-08-19T02:27:18;100793.00;;;28.20
23208;BMP180;11773;52.570;13.052;2022-08-19T02:29:50;100789.00;;;28.20
23208;BMP180;11773;52.570;13.052;2022-08-19T02:32:20;100771.00;;;28.20
23208;BMP180;11773;52.570;13.052;2022-08-19T02:34:50;100773.00;;;28.20
23208;BMP180;11773;52.570;13.052;2022-08-19T02:37:19;100757.00;;;28.20
23208;BMP180;11773;52.570;13.052;2022-08-19T02:40:07;100734.00;;;28.20
23208;BMP180;11773;52.570;13.052;2022-08-19T02:42:39;100721.00;;;28.20
23208;BMP180;11773;52.570;13.052;2022-08-19T02:45:09;100692.00;;;28.20
23208;BMP180;11773;52.570;13.052;2022-08-19T02:47:39;100677.00;;;28.10
23208;BMP180;11773;52.570;13.052;2022-08-19T02:50:09;100662.00;;;28.10
23208;BMP180;11773;52.570;13.052;2022-08-19T02:52:39;100682.00;;;28.10
23208;BMP180;11773;52.570;13.052;2022-08-19T02:55:09;100670.00;;;28.10
23208;BMP180;11773;52.570;13.052;2022-08-19T02:57:38;100668.00;;;28.10
23208;BMP180;11773;52.570;13.052;2022-08-19T03:00:11;100662.00;;;28.00
23208;BMP180;11773;52.570;13.052;2022-08-19T03:02:41;100668.00;;;28.00
23208;BMP180;11773;52.570;13.052;2022-08-19T03:05:11;100675.00;;;28.00
23208;BMP180;11773;52.570;13.052;2022-08-19T03:07:41;100680.00;;;27.90
23208;BMP180;11773;52.570;13.052;2022-08-19T03:10:11;100679.00;;;27.90
23208;BMP180;11773;52.570;13.052;2022-08-19T03:12:40;100667.00;;;27.90
23208;BMP180;11773;52.570;13.052;2022-08-19T03:15:10;100683.00;;;27.80
23208;BMP180;11773;52.570;13.052;2022-08-19T03:17:39;100669.00;;;27.80
23208;BMP180;11773;52.570;13.052;2022-08-19T03:20:10;100662.00;;;27.80
23208;BMP180;11773;52.570;13.052;2022-08-19T03:22:39;100654.00;;;27.70
23208;BMP180;11773;52.570;13.052;2022-08-19T03:25:09;100660.00;;;27.70
23208;BMP180;11773;52.570;13.052;2022-08-19T03:27:40;100657.00;;;27.70
23208;BMP180;11773;52.570;13.052;2022-08-19T03:30:12;100658.00;;;27.70
23208;BMP180;11773;52.570;13.052;2022-08-19T03:32:43;100658.00;;;27.70
23208;BMP180;11773;52.570;13.052;2022-08-19T03:35:12;100653.00;;;27.70
23208;BMP180;11773;52.570;13.052;2022-08-19T03:37:42;100654.00;;;27.70
23208;BMP180;11773;52.570;13.052;2022-08-19T03:40:11;100657.00;;;27.70
23208;BMP180;11773;52.570;13.052;2022-08-19T03:42:43;100653.00;;;27.70
23208;BMP180;11773;52.570;13.052;2022-08-19T03:45:14;100651.00;;;27.60
23208;BMP180;11773;52.570;13.052;2022-08-19T03:47:44;100647.00;;;27.60
23208;BMP180;11773;52.570;13.052;2022-08-19T03:50:13;100656.00;;;27.60
23208;BMP180;11773;52.570;13.052;2022-08-19T03:52:47;100657.00;;;27.60
23208;BMP180;11773;52.570;13.052;2022-08-19T03:55:14;100652.00;;;27.60
23208;BMP180;11773;52.570;13.052;2022-08-19T03:57:44;100662.00;;;27.60
23208;BMP180;11773;52.570;13.052;2022-08-19T04:00:16;100663.00;;;27.60
23208;BMP180;11773;52.570;13.052;2022-08-19T04:02:46;100664.00;;;27.60
23208;BMP180;11773;52.570;13.052;2022-08-19T04:05:17;100660.00;;;27.60
23208;BMP180;11773;52.570;13.052;2022-08-19T04:07:48;100671.00;;;27.60
23208;BMP180;11773;52.570;13.052;2022-08-19T04:10:18;100669.00;;;27.60
23208;BMP180;11773;52.570;13.052;2022-08-19T04:12:47;100680.00;;;27.60
23208;BMP180;11773;52.570;13.052;2022-08-19T04:15:18;100669.00;;;27.50
23208;BMP180;11773;52.570;13.052;2022-08-19T04:17:48;100684.00;;;27.50
23208;BMP180;11773;52.570;13.052;2022-08-19T04:20:18;100680.00;;;27.50
23208;BMP180;11773;52.570;13.052;2022-08-19T04:22:48;100681.00;;;27.50
23208;BMP180;11773;52.570;13.052;2022-08-19T04:25:17;100678.00;;;27.50
23208;BMP180;11773;52.570;13.052;2022-08-19T04:27:47;100686.00;;;27.50
23208;BMP180;11773;52.570;13.052;2022-08-19T04:30:16;100686.00;;;27.50
23208;BMP180;11773;52.570;13.052;2022-08-19T04:32:47;100692.00;;;27.50
23208;BMP180;11773;52.570;13.052;2022-08-19T04:35:18;100684.00;;;27.50
23208;BMP180;11773;52.570;13.052;2022-08-19T04:37:49;100682.00;;;27.50
23208;BMP180;11773;52.570;13.052;2022-08-19T04:40:19;100692.00;;;27.50
23208;BMP180;11773;52.570;13.052;2022-08-19T04:43:06;100682.00;;;27.50
23208;BMP180;11773;52.570;13.052;2022-08-19T04:45:37;100688.00;;;27.50
23208;BMP180;11773;52.570;13.052;2022-08-19T04:48:09;100696.00;;;27.50
23208;BMP180;11773;52.570;13.052;2022-08-19T04:50:42;100698.00;;;27.50
23208;BMP180;11773;52.570;13.052;2022-08-19T04:53:12;100702.00;;;27.50
23208;BMP180;11773;52.570;13.052;2022-08-19T04:55:43;100700.00;;;27.50
23208;BMP180;11773;52.570;13.052;2022-08-19T04:58:12;100711.00;;;27.50
23208;BMP180;11773;52.570;13.052;2022-08-19T05:00:42;100702.00;;;27.40
23208;BMP180;11773;52.570;13.052;2022-08-19T05:03:12;100696.00;;;27.50
23208;BMP180;11773;52.570;13.052;2022-08-19T05:05:46;100704.00;;;27.50
23208;BMP180;11773;52.570;13.052;2022-08-19T05:08:21;100695.00;;;27.40
23208;BMP180;11773;52.570;13.052;2022-08-19T05:10:52;100690.00;;;27.40
23208;BMP180;11773;52.570;13.052;2022-08-19T05:13:22;100678.00;;;27.40
23208;BMP180;11773;52.570;13.052;2022-08-19T05:15:57;100679.00;;;27.40
23208;BMP180;11773;52.570;13.052;2022-08-19T05:18:27;100672.00;;;27.40
23208;BMP180;11773;52.570;13.052;2022-08-19T05:21:18;100670.00;;;27.40
23208;BMP180;11773;52.570;13.052;2022-08-19T05:24:06;100673.00;;;27.30
23208;BMP180;11773;52.570;13.052;2022-08-19T05:26:43;100690.00;;;27.30
23208;BMP180;11773;52.570;13.052;2022-08-19T05:29:24;100668.00;;;27.40
23208;BMP180;11773;52.570;13.052;2022-08-19T05:31:50;100661.00;;;27.40
23208;BMP180;11773;52.570;13.052;2022-08-19T05:34:23;100658.00;;;27.40
23208;BMP180;11773;52.570;13.052;2022-08-19T05:36:59;100662.00;;;27.40
23208;BMP180;11773;52.570;13.052;2022-08-19T05:39:33;100669.00;;;27.40
23208;BMP180;11773;52.570;13.052;2022-08-19T05:42:09;100659.00;;;27.40
23208;BMP180;11773;52.570;13.052;2022-08-19T05:44:43;100669.00;;;27.40
23208;BMP180;11773;52.570;13.052;2022-08-19T05:47:18;100671.00;;;27.40
23208;BMP180;11773;52.570;13.052;2022-08-19T05:49:51;100690.00;;;27.50
23208;BMP180;11773;52.570;13.052;2022-08-19T05:52:20;100691.00;;;27.50
23208;BMP180;11773;52.570;13.052;2022-08-19T05:54:52;100701.00;;;27.60
23208;BMP180;11773;52.570;13.052;2022-08-19T05:57:25;100686.00;;;27.60
23208;BMP180;11773;52.570;13.052;2022-08-19T05:59:56;100692.00;;;27.60
23208;BMP180;11773;52.570;13.052;2022-08-19T06:02:29;100698.00;;;27.70
23208;BMP180;11773;52.570;13.052;2022-08-19T06:05:04;100699.00;;;27.70
23208;BMP180;11773;52.570;13.052;2022-08-19T06:07:38;100700.00;;;27.70
23208;BMP180;11773;52.570;13.052;2022-08-19T06:10:10;100714.00;;;27.80
23208;BMP180;11773;52.570;13.052;2022-08-19T06:12:40;100701.00;;;27.80
23208;BMP180;11773;52.570;13.052;2022-08-19T06:15:12;100703.00;;;27.80
23208;BMP180;11773;52.570;13.052;2022-08-19T06:17:43;100698.00;;;27.90
23208;BMP180;11773;52.570;13.052;2022-08-19T06:20:16;100690.00;;;27.90
23208;BMP180;11773;52.570;13.052;2022-08-19T06:22:49;100701.00;;;27.90
23208;BMP180;11773;52.570;13.052;2022-08-19T06:25:19;100689.00;;;27.90
23208;BMP180;11773;52.570;13.052;2022-08-19T06:27:49;100690.00;;;28.00
23208;BMP180;11773;52.570;13.052;2022-08-19T06:30:20;100679.00;;;28.00
23208;BMP180;11773;52.570;13.052;2022-08-19T06:32:49;100680.00;;;28.00
23208;BMP180;11773;52.570;13.052;2022-08-19T06:35:20;100699.00;;;28.10
23208;BMP180;11773;52.570;13.052;2022-08-19T06:37:50;100705.00;;;28.10
23208;BMP180;11773;52.570;13.052;2022-08-19T06:40:20;100695.00;;;28.20
23208;BMP180;11773;52.570;13.052;2022-08-19T06:42:50;100695.00;;;28.20
23208;BMP180;11773;52.570;13.052;2022-08-19T06:45:23;100706.00;;;28.30
23208;BMP180;11773;52.570;13.052;2022-08-19T06:47:57;100717.00;;;28.40
23208;BMP180;11773;52.570;13.052;2022-08-19T06:50:28;100745.00;;;28.40
23208;BMP180;11773;52.570;13.052;2022-08-19T06:52:58;100750.00;;;28.50
23208;BMP180;11773;52.570;13.052;2022-08-19T06:55:29;100740.00;;;28.60
23208;BMP180;11773;52.570;13.052;2022-08-19T06:58:05;100731.00;;;28.60
23208;BMP180;11773;52.570;13.052;2022-08-19T07:00:35;100737.00;;;28.70
23208;BMP180;11773;52.570;13.052;2022-08-19T07:03:05;100731.00;;;28.70
23208;BMP180;11773;52.570;13.052;2022-08-19T07:05:41;100739.00;;;28.70
23208;BMP180;11773;52.570;13.052;2022-08-19T07:08:13;100744.00;;;28.80
23208;BMP180;11773;52.570;13.052;2022-08-19T07:10:46;100731.00;;;28.80
23208;BMP180;11773;52.570;13.052;2022-08-19T07:13:17;100747.00;;;28.80
23208;BMP180;11773;52.570;13.052;2022-08-19T07:15:48;100722.00;;;28.80
23208;BMP180;11773;52.570;13.052;2022-08-19T07:18:20;100718.00;;;28.80
23208;BMP180;11773;52.570;13.052;2022-08-19T07:20:49;100720.00;;;28.80
23208;BMP180;11773;52.570;13.052;2022-08-19T07:23:19;100741.00;;;28.90
23208;BMP180;11773;52.570;13.052;2022-08-19T07:25:50;100730.00;;;28.90
23208;BMP180;11773;52.570;13.052;2022-08-19T07:28:20;100738.00;;;28.90
23208;BMP180;11773;52.570;13.052;2022-08-19T07:30:52;100745.00;;;28.90
23208;BMP180;11773;52.570;13.052;2022-08-19T07:33:22;100756.00;;;28.90
23208;BMP180;11773;52.570;13.052;2022-08-19T07:35:54;100752.00;;;28.90
23208;BMP180;11773;52.570;13.052;2022-08-19T07:38:23;100750.00;;;29.00
23208;BMP180;11773;52.570;13.052;2022-08-19T07:40:54;100749.00;;;29.00
23208;BMP180;11773;52.570;13.052;2022-08-19T07:43:24;100753.00;;;29.00
23208;BMP180;11773;52.570;13.052;2022-08-19T07:45:56;100751.00;;;29.00
23208;BMP180;11773;52.570;13.052;2022-08-19T07:48:27;100760.00;;;29.00
23208;BMP180;11773;52.570;13.052;2022-08-19T07:51:01;100782.00;;;29.00
23208;BMP180;11773;52.570;13.052;2022-08-19T07:53:32;100771.00;;;29.00
23208;BMP180;11773;52.570;13.052;2022-08-19T07:56:04;100765.00;;;29.00
23208;BMP180;11773;52.570;13.052;2022-08-19T07:58:38;100780.00;;;29.00
23208;BMP180;11773;52.570;13.052;2022-08-19T08:01:12;100769.00;;;29.00
23208;BMP180;11773;52.570;13.052;2022-08-19T08:03:41;100756.00;;;29.00
23208;BMP180;11773;52.570;13.052;2022-08-19T08:06:15;100754.00;;;29.00
23208;BMP180;11773;52.570;13.052;2022-08-19T08:09:04;100772.00;;;29.00
23208;BMP180;11773;52.570;13.052;2022-08-19T08:11:43;100764.00;;;29.00
23208;BMP180;11773;52.570;13.052;2022-08-19T08:14:20;100771.00;;;29.00
23208;BMP180;11773;52.570;13.052;2022-08-19T08:16:52;100784.00;;;29.00
23208;BMP180;11773;52.570;13.052;2022-08-19T08:19:24;100778.00;;;29.00
23208;BMP180;11773;52.570;13.052;2022-08-19T08:21:58;100773.00;;;29.00
23208;BMP180;11773;52.570;13.052;2022-08-19T08:24:30;100781.00;;;29.10
23208;BMP180;11773;52.570;13.052;2022-08-19T08:27:01;100781.00;;;29.00
23208;BMP180;11773;52.570;13.052;2022-08-19T08:29:33;100785.00;;;29.00
23208;BMP180;11773;52.570;13.052;2022-08-19T08:32:03;100791.00;;;29.00
23208;BMP180;11773;52.570;13.052;2022-08-19T08:34:34;100787.00;;;29.00
23208;BMP180;11773;52.570;13.052;2022-08-19T08:37:05;100795.00;;;29.00
23208;BMP180;11773;52.570;13.052;2022-08-19T08:39:34;100795.00;;;29.00
23208;BMP180;11773;52.570;13.052;2022-08-19T08:42:30;100795.00;;;29.00
23208;BMP180;11773;52.570;13.052;2022-08-19T08:45:00;100795.00;;;29.00
23208;BMP180;11773;52.570;13.052;2022-08-19T08:47:35;100804.00;;;29.00
23208;BMP180;11773;52.570;13.052;2022-08-19T08:50:38;100810.00;;;29.00
23208;BMP180;11773;52.570;13.052;2022-08-19T08:52:58;100789.00;;;28.90
23208;BMP180;11773;52.570;13.052;2022-08-19T08:55:30;100793.00;;;28.90
23208;BMP180;11773;52.570;13.052;2022-08-19T08:58:28;100789.00;;;28.90
23208;BMP180;11773;52.570;13.052;2022-08-19T09:00:48;100796.00;;;28.90
23208;BMP180;11773;52.570;13.052;2022-08-19T09:03:29;100807.00;;;28.90
23208;BMP180;11773;52.570;13.052;2022-08-19T09:06:14;100812.00;;;28.90
23208;BMP180;11773;52.570;13.052;2022-08-19T09:09:02;100823.00;;;28.90
23208;BMP180;11773;52.570;13.052;2022-08-19T09:12:10;100819.00;;;28.90
23208;BMP180;11773;52.570;13.052;2022-08-19T09:14:58;100825.00;;;28.80
23208;BMP180;11773;52.570;13.052;2022-08-19T09:17:30;100816.00;;;28.80
23208;BMP180;11773;52.570;13.052;2022-08-19T09:20:18;100829.00;;;28.80
23208;BMP180;11773;52.570;13.052;2022-08-19T09:22:47;100832.00;;;28.80
23208;BMP180;11773;52.570;13.052;2022-08-19T09:25:20;100820.00;;;28.80
23208;BMP180;11773;52.570;13.052;2022-08-19T09:27:56;100822.00;;;28.80
23208;BMP180;11773;52.570;13.052;2022-08-19T09:30:32;100818.00;;;28.80
23208;BMP180;11773;52.570;13.052;2022-08-19T09:33:02;100824.00;;;28.90
23208;BMP180;11773;52.570;13.052;2022-08-19T09:35:32;100815.00;;;28.90
23208;BMP180;11773;52.570;13.052;2022-08-19T09:38:05;100817.00;;;28.90
23208;BMP180;11773;52.570;13.052;2022-08-19T09:40:36;100815.00;;;28.90
23208;BMP180;11773;52.570;13.052;2022-08-19T09:43:08;100823.00;;;28.90
23208;BMP180;11773;52.570;13.052;2022-08-19T09:45:40;100821.00;;;28.90
23208;BMP180;11773;52.570;13.052;2022-08-19T09:48:10;100814.00;;;29.00
23208;BMP180;11773;52.570;13.052;2022-08-19T09:50:41;100819.00;;;29.00
23208;BMP180;11773;52.570;13.052;2022-08-19T09:53:12;100817.00;;;29.00
23208;BMP180;11773;52.570;13.052;2022-08-19T09:55:46;100817.00;;;29.00
23208;BMP180;11773;52.570;13.052;2022-08-19T09:58:16;100816.00;;;29.00
23208;BMP180;11773;52.570;13.052;2022-08-19T10:00:47;100813.00;;;29.00
23208;BMP180;11773;52.570;13.052;2022-08-19T10:03:18;100803.00;;;29.00
23208;BMP180;11773;52.570;13.052;2022-08-19T10:05:50;100798.00;;;29.10
23208;BMP180;11773;52.570;13.052;2022-08-19T10:08:28;100802.00;;;29.10
23208;BMP180;11773;52.570;13.052;2022-08-19T10:10:59;100803.00;;;29.10
23208;BMP180;11773;52.570;13.052;2022-08-19T10:13:33;100799.00;;;29.10
23208;BMP180;11773;52.570;13.052;2022-08-19T10:16:16;100807.00;;;29.10
23208;BMP180;11773;52.570;13.052;2022-08-19T10:18:43;100815.00;;;29.10
23208;BMP180;11773;52.570;13.052;2022-08-19T10:21:27;100818.00;;;29.10
23208;BMP180;11773;52.570;13.052;2022-08-19T10:23:57;100817.00;;;29.10
23208;BMP180;11773;52.570;13.052;2022-08-19T10:26:34;100815.00;;;29.10
23208;BMP180;11773;52.570;13.052;2022-08-19T10:29:01;100809.00;;;29.20
23208;BMP180;11773;52.570;13.052;2022-08-19T10:31:34;100815.00;;;29.20
23208;BMP180;11773;52.570;13.052;2022-08-19T10:34:05;100807.00;;;29.20
23208;BMP180;11773;52.570;13.052;2022-08-19T10:36:37;100819.00;;;29.20
23208;BMP180;11773;52.570;13.052;2022-08-19T10:39:10;100812.00;;;29.20
23208;BMP180;11773;52.570;13.052;2022-08-19T10:41:41;100810.00;;;29.20
23208;BMP180;11773;52.570;13.052;2022-08-19T10:44:13;100812.00;;;29.20
23208;BMP180;11773;52.570;13.052;2022-08-19T10:46:45;100807.00;;;29.20
23208;BMP180;11773;52.570;13.052;2022-08-19T10:49:16;100810.00;;;29.10
23208;BMP180;11773;52.570;13.052;2022-08-19T10:51:47;100797.00;;;29.20
23208;BMP180;11773;52.570;13.052;2022-08-19T10:54:36;100786.00;;;29.10
23208;BMP180;11773;52.570;13.052;2022-08-19T10:57:23;100786.00;;;29.10
23208;BMP180;11773;52.570;13.052;2022-08-19T10:59:56;100778.00;;;29.10
23208;BMP180;11773;52.570;13.052;2022-08-19T11:02:26;100781.00;;;29.10
23208;BMP180;11773;52.570;13.052;2022-08-19T11:04:56;100796.00;;;29.10
23208;BMP180;11773;52.570;13.052;2022-08-19T11:07:27;100796.00;;;29.10
23208;BMP180;11773;52.570;13.052;2022-08-19T11:09:57;100790.00;;;29.10
23208;BMP180;11773;52.570;13.052;2022-08-19T11:12:26;100799.00;;;29.10
23208;BMP180;11773;52.570;13.052;2022-08-19T11:14:56;100792.00;;;29.20
23208;BMP180;11773;52.570;13.052;2022-08-19T11:17:25;100797.00;;;29.20
23208;BMP180;11773;52.570;13.052;2022-08-19T11:19:55;100804.00;;;29.20
23208;BMP180;11773;52.570;13.052;2022-08-19T11:22:24;100803.00;;;29.20
23208;BMP180;11773;52.570;13.052;2022-08-19T11:24:56;100814.00;;;29.20
23208;BMP180;11773;52.570;13.052;2022-08-19T11:27:25;100808.00;;;29.20
23208;BMP180;11773;52.570;13.052;2022-08-19T11:29:55;100804.00;;;29.20
23208;BMP180;11773;52.570;13.052;2022-08-19T11:32:25;100816.00;;;29.20
23208;BMP180;11773;52.570;13.052;2022-08-19T11:34:54;100815.00;;;29.20
23208;BMP180;11773;52.570;13.052;2022-08-19T11:37:24;100805.00;;;29.20
23208;BMP180;11773;52.570;13.052;2022-08-19T11:39:53;100802.00;;;29.20
23208;BMP180;11773;52.570;13.052;2022-08-19T11:42:23;100810.00;;;29.20
23208;BMP180;11773;52.570;13.052;2022-08-19T11:45:10;100797.00;;;29.20
23208;BMP180;11773;52.570;13.052;2022-08-19T11:47:40;100797.00;;;29.20
23208;BMP180;11773;52.570;13.052;2022-08-19T11:50:10;100801.00;;;29.20
23208;BMP180;11773;52.570;13.052;2022-08-19T11:52:39;100804.00;;;29.30
23208;BMP180;11773;52.570;13.052;2022-08-19T11:55:10;100809.00;;;29.30
23208;BMP180;11773;52.570;13.052;2022-08-19T11:57:41;100815.00;;;29.30
23208;BMP180;11773;52.570;13.052;2022-08-19T12:00:13;100821.00;;;29.30
23208;BMP180;11773;52.570;13.052;2022-08-19T12:02:43;100829.00;;;29.30
23208;BMP180;11773;52.570;13.052;2022-08-19T12:05:12;100826.00;;;29.40
23208;BMP180;11773;52.570;13.052;2022-08-19T12:07:42;100844.00;;;29.40
23208;BMP180;11773;52.570;13.052;2022-08-19T12:10:12;100847.00;;;29.40
23208;BMP180;11773;52.570;13.052;2022-08-19T12:12:43;100835.00;;;29.40
23208;BMP180;11773;52.570;13.052;2022-08-19T12:15:15;100831.00;;;29.50
23208;BMP180;11773;52.570;13.052;2022-08-19T12:17:45;100826.00;;;29.50
23208;BMP180;11773;52.570;13.052;2022-08-19T12:20:15;100844.00;;;29.50
23208;BMP180;11773;52.570;13.052;2022-08-19T12:22:45;100837.00;;;29.60
23208;BMP180;11773;52.570;13.052;2022-08-19T12:25:16;100838.00;;;29.60
23208;BMP180;11773;52.570;13.052;2022-08-19T12:27:48;100821.00;;;29.60
23208;BMP180;11773;52.570;13.052;2022-08-19T12:30:20;100830.00;;;29.60
23208;BMP180;11773;52.570;13.052;2022-08-19T12:32:49;100835.00;;;29.60
23208;BMP180;11773;52.570;13.052;2022-08-19T12:35:20;100830.00;;;29.60
23208;BMP180;11773;52.570;13.052;2022-08-19T12:37:50;100831.00;;;29.70
23208;BMP180;11773;52.570;13.052;2022-08-19T12:40:21;100819.00;;;29.70
23208;BMP180;11773;52.570;13.052;2022-08-19T12:42:53;100821.00;;;29.70
23208;BMP180;11773;52.570;13.052;2022-08-19T12:45:23;100822.00;;;29.70
23208;BMP180;11773;52.570;13.052;2022-08-19T12:47:53;100832.00;;;29.70
23208;BMP180;11773;52.570;13.052;2022-08-19T12:50:23;100831.00;;;29.70
23208;BMP180;11773;52.570;13.052;2022-08-19T12:52:53;100831.00;;;29.70
23208;BMP180;11773;52.570;13.052;2022-08-19T12:55:23;100836.00;;;29.80
23208;BMP180;11773;52.570;13.052;2022-08-19T12:57:53;100837.00;;;29.80
23208;BMP180;11773;52.570;13.052;2022-08-19T13:00:23;100839.00;;;29.80
23208;BMP180;11773;52.570;13.052;2022-08-19T13:02:53;100847.00;;;29.80
23208;BMP180;11773;52.570;13.052;2022-08-19T13:05:27;100832.00;;;29.80
23208;BMP180;11773;52.570;13.052;2022-08-19T13:07:58;100835.00;;;29.80
23208;BMP180;11773;52.570;13.052;2022-08-19T13:10:33;100844.00;;;29.80
23208;BMP180;11773;52.570;13.052;2022-08-19T13:13:08;100844.00;;;29.80
23208;BMP180;11773;52.570;13.052;2022-08-19T13:15:42;100848.00;;;29.80
23208;BMP180;11773;52.570;13.052;2022-08-19T13:18:13;100853.00;;;29.80
23208;BMP180;11773;52.570;13.052;2022-08-19T13:20:43;100856.00;;;29.80
23208;BMP180;11773;52.570;13.052;2022-08-19T13:23:14;100850.00;;;29.80
23208;BMP180;11773;52.570;13.052;2022-08-19T13:25:44;100845.00;;;29.70
23208;BMP180;11773;52.570;13.052;2022-08-19T13:28:15;100852.00;;;29.70
23208;BMP180;11773;52.570;13.052;2022-08-19T13:30:48;100839.00;;;29.70
23208;BMP180;11773;52.570;13.052;2022-08-19T13:33:35;100837.00;;;29.70
23208;BMP180;11773;52.570;13.052;2022-08-19T13:36:05;100848.00;;;29.70
23208;BMP180;11773;52.570;13.052;2022-08-19T13:38:36;100854.00;;;29.70
23208;BMP180;11773;52.570;13.052;2022-08-19T13:41:06;100854.00;;;29.70
23208;BMP180;11773;52.570;13.052;2022-08-19T13:43:38;100852.00;;;29.70
23208;BMP180;11773;52.570;13.052;2022-08-19T13:46:10;100867.00;;;29.70
23208;BMP180;11773;52.570;13.052;2022-08-19T13:48:42;100860.00;;;29.70
23208;BMP180;11773;52.570;13.052;2022-08-19T13:51:12;100860.00;;;29.70
23208;BMP180;11773;52.570;13.052;2022-08-19T13:53:42;100853.00;;;29.70
23208;BMP180;11773;52.570;13.052;2022-08-19T13:56:17;100863.00;;;29.80
23208;BMP180;11773;52.570;13.052;2022-08-19T13:58:49;100849.00;;;29.80
23208;BMP180;11773;52.570;13.052;2022-08-19T14:01:23;100844.00;;;29.80
23208;BMP180;11773;52.570;13.052;2022-08-19T14:03:54;100844.00;;;29.80
23208;BMP180;11773;52.570;13.052;2022-08-19T14:06:24;100834.00;;;29.80
23208;BMP180;11773;52.570;13.052;2022-08-19T14:08:53;100828.00;;;29.80
23208;BMP180;11773;52.570;13.052;2022-08-19T14:11:23;100848.00;;;29.80
23208;BMP180;11773;52.570;13.052;2022-08-19T14:13:53;100850.00;;;29.90